Time;durP1;ratioP1;P1;durP2;ratioP2;P2;SDS_P1;SDS_P2;PMS_P1;PMS_P2;Temp;Humidity;BMP_temperature;BMP_pressure;BME280_temperature;BME280_humidity;BME280_pressure;Samples;Min_cycle;Max_cycle;Signal;HPM_P1;HPM_P2
2021/12/16 00:01:49;;;;;;;;;;;;;;;21.59;31.61;97170.91;1040127;28;1065;-49
2021/12/16 00:02:23;;;;;;;;;;;;;;;21.58;31.77;97169.28;1033906;28;1097;-52
2021/12/16 00:07:55;;;;;;;;;;;;;;;21.51;31.87;97163.41;1029692;28;1984;-47
2021/12/16 00:09:01;;;;;;;;;;;;;;;21.52;31.76;97161.56;1031306;28;1117;-50
2021/12/16 00:10:42;;;;;;;;;;;;;;;21.51;31.60;97168.69;1026914;28;1470;-51
2021/12/16 00:31:25;;;;;;;;;;;;;;;21.38;32.00;97141.88;1029516;28;1007;-48
2021/12/16 00:32:18;;;;;;;;;;;;;;;21.39;31.97;97143.47;1032312;28;1132;-46
2021/12/16 00:33:10;;;;;;;;;;;;;;;21.36;32.03;97143.94;1029091;28;2022;-50
2021/12/16 00:33:43;;;;;;;;;;;;;;;21.41;31.81;97141.38;1029560;28;1748;-46
2021/12/16 00:34:14;;;;;;;;;;;;;;;21.39;31.83;97138.97;1032026;28;1098;-47
2021/12/16 00:34:44;;;;;;;;;;;;;;;21.39;31.72;97135.56;1032371;28;1105;-49
2021/12/16 00:35:15;;;;;;;;;;;;;;;21.40;31.68;97140.59;1032341;28;1038;-46
2021/12/16 00:35:49;;;;;;;;;;;;;;;21.41;31.82;97138.75;1032349;28;1097;-47
2021/12/16 00:36:19;;;;;;;;;;;;;;;21.39;31.66;97143.47;1032833;28;1074;-49
2021/12/16 00:36:49;;;;;;;;;;;;;;;21.38;31.67;97144.50;1032998;28;1112;-47
2021/12/16 00:37:20;;;;;;;;;;;;;;;21.35;31.83;97147.66;1033132;28;1022;-47
2021/12/16 00:37:50;;;;;;;;;;;;;;;21.35;31.96;97142.38;1032206;28;1857;-47
2021/12/16 00:38:20;;;;;;;;;;;;;;;21.35;31.84;97143.16;1032287;28;994;-50
2021/12/16 00:38:50;;;;;;;;;;;;;;;21.36;31.80;97143.94;1032807;28;1112;-51
2021/12/16 00:39:22;;;;;;;;;;;;;;;21.36;31.71;97149.22;1032266;28;1073;-50
2021/12/16 00:39:52;;;;;;;;;;;;;;;21.37;32.04;97145.56;1032832;28;1134;-47
2021/12/16 00:40:23;;;;;;;;;;;;;;;21.36;31.70;97149.22;1033077;28;1035;-50
2021/12/16 00:40:54;;;;;;;;;;;;;;;21.36;31.88;97146.59;1033110;28;1086;-48
2021/12/16 00:41:25;;;;;;;;;;;;;;;21.37;31.72;97142.91;1033204;28;1113;-47
2021/12/16 00:42:02;;;;;;;;;;;;;;;21.36;31.74;97147.41;1032956;28;1172;-47
2021/12/16 00:43:14;;;;;;;;;;;;;;;21.36;31.69;97149.22;1030993;28;1793;-49
2021/12/16 00:43:54;;;;;;;;;;;;;;;21.34;31.98;97146.84;1033087;28;1033;-49
2021/12/16 00:45:46;;;;;;;;;;;;;;;21.35;31.77;97153.69;1033182;28;1050;-50
2021/12/16 00:50:17;;;;;;;;;;;;;;;21.34;31.79;97156.59;1033133;28;1142;-46
2021/12/16 00:54:10;;;;;;;;;;;;;;;21.31;31.96;97157.09;1032592;28;1376;-50
2021/12/16 00:54:43;;;;;;;;;;;;;;;21.28;31.94;97147.81;1031390;28;1605;-46
2021/12/16 00:56:16;;;;;;;;;;;;;;;21.23;31.89;97153.00;1028255;28;998;-47
2021/12/16 00:56:50;;;;;;;;;;;;;;;21.26;31.86;97154.38;1027851;28;1420;-47
2021/12/16 00:57:21;;;;;;;;;;;;;;;21.24;31.89;97149.34;1029957;28;2258;-45
2021/12/16 00:57:52;;;;;;;;;;;;;;;21.28;31.77;97154.94;1032336;28;967;-51
2021/12/16 00:58:27;;;;;;;;;;;;;;;21.25;31.97;97150.13;1031652;28;2090;-52
2021/12/16 00:58:59;;;;;;;;;;;;;;;21.25;31.93;97148.28;1040552;28;1087;-48
2021/12/16 00:59:34;;;;;;;;;;;;;;;21.25;31.68;97147.50;1040838;28;1105;-47
2021/12/16 01:00:06;;;;;;;;;;;;;;;21.26;31.73;97149.09;1040798;28;1175;-46
2021/12/16 01:00:36;;;;;;;;;;;;;;;21.25;31.93;97153.56;1037938;28;1076;-50
2021/12/16 01:01:15;;;;;;;;;;;;;;;21.23;31.78;97150.38;1033071;28;1088;-47
2021/12/16 01:03:52;;;;;;;;;;;;;;;21.22;31.98;97148.00;1032795;28;931;-49
2021/12/16 01:08:32;;;;;;;;;;;;;;;21.21;31.77;97163.00;1032107;28;1874;-47
2021/12/16 01:34:04;;;;;;;;;;;;;;;21.04;31.69;97157.78;1031906;28;2188;-47
2021/12/16 01:34:48;;;;;;;;;;;;;;;21.04;31.83;97157.00;1032977;28;974;-51
2021/12/16 01:50:10;;;;;;;;;;;;;;;21.00;31.92;97175.09;1020551;29;1975;-76
2021/12/16 01:50:49;;;;;;;;;;;;;;;21.01;31.74;97163.50;1020308;29;1923;-76
2021/12/16 01:51:27;;;;;;;;;;;;;;;20.99;31.89;97168.22;1012320;29;932;-77
2021/12/16 01:55:14;;;;;;;;;;;;;;;20.94;31.75;97162.88;1025557;28;1893;-76
2021/12/16 01:55:49;;;;;;;;;;;;;;;20.98;31.84;97165.81;1024721;29;1094;-77
2021/12/16 01:57:42;;;;;;;;;;;;;;;20.98;31.75;97158.72;1018936;29;1128;-77
2021/12/16 01:58:18;;;;;;;;;;;;;;;20.97;31.77;97157.13;1013955;29;1089;-77
2021/12/16 01:58:50;;;;;;;;;;;;;;;20.95;31.80;97156.56;1011379;29;1799;-76
2021/12/16 01:59:23;;;;;;;;;;;;;;;20.95;31.72;97153.94;1014758;29;1012;-77
2021/12/16 02:00:12;;;;;;;;;;;;;;;20.93;31.85;97150.75;1015195;29;1142;-77
2021/12/16 02:01:08;;;;;;;;;;;;;;;20.94;31.86;97152.31;1014938;29;1396;-77
2021/12/16 02:01:40;;;;;;;;;;;;;;;20.94;31.70;97146.25;1012605;29;1248;-77
2021/12/16 02:03:04;;;;;;;;;;;;;;;20.94;31.78;97141.78;1011095;29;1185;-76
2021/12/16 02:03:15;;;;;;;;;;;;;;;20.96;31.72;97139.69;1014365;29;997;-77
2021/12/16 02:03:49;;;;;;;;;;;;;;;20.94;31.85;97141.78;1014455;29;1107;-76
2021/12/16 02:04:28;;;;;;;;;;;;;;;20.93;31.87;97142.84;1020071;29;1461;-77
2021/12/16 02:05:58;;;;;;;;;;;;;;;20.90;31.88;97140.66;1021843;29;1174;-77
2021/12/16 02:07:23;;;;;;;;;;;;;;;20.90;31.74;97145.13;1024781;29;1201;-77
2021/12/16 02:08:28;;;;;;;;;;;;;;;20.89;31.83;97144.38;1012494;29;1914;-76
2021/12/16 02:08:58;;;;;;;;;;;;;;;20.88;31.91;97148.03;1013861;29;1798;-76
2021/12/16 02:09:40;;;;;;;;;;;;;;;20.87;31.84;97140.38;1019605;29;1020;-77
2021/12/16 02:10:11;;;;;;;;;;;;;;;20.89;31.83;97144.38;1014911;29;2109;-76
2021/12/16 02:10:45;;;;;;;;;;;;;;;20.87;31.91;97140.38;1013033;29;1361;-76
2021/12/16 02:12:38;;;;;;;;;;;;;;;20.86;31.96;97138.75;1015665;29;1205;-76
2021/12/16 02:13:28;;;;;;;;;;;;;;;20.88;31.77;97141.94;1021845;29;1196;-77
2021/12/16 02:28:04;;;;;;;;;;;;;;;20.85;31.88;97159.06;1024142;29;966;-77
2021/12/16 02:29:23;;;;;;;;;;;;;;;20.84;31.77;97165.34;1022273;28;1911;-76
2021/12/16 02:32:00;;;;;;;;;;;;;;;20.78;32.01;97163.69;1018091;29;1033;-77
2021/12/16 02:33:07;;;;;;;;;;;;;;;20.80;31.97;97164.25;1022365;29;1135;-76
2021/12/16 02:34:28;;;;;;;;;;;;;;;20.80;31.78;97163.44;1016889;29;2032;-76
2021/12/16 02:36:14;;;;;;;;;;;;;;;20.80;31.88;97158.16;1017096;29;1120;-77
2021/12/16 02:36:46;;;;;;;;;;;;;;;20.80;31.69;97161.59;1014447;29;1780;-77
2021/12/16 02:37:17;;;;;;;;;;;;;;;20.79;31.94;97154.72;1015066;29;1181;-76
2021/12/16 02:37:49;;;;;;;;;;;;;;;20.78;31.75;97158.41;1015484;29;1155;-77
2021/12/16 02:38:19;;;;;;;;;;;;;;;20.78;31.78;97158.41;1008919;29;1045;-77
2021/12/16 02:38:50;;;;;;;;;;;;;;;20.77;31.78;97161.31;1009258;29;1139;-77
2021/12/16 02:39:23;;;;;;;;;;;;;;;20.77;31.73;97151.53;1010953;29;2216;-77
2021/12/16 02:39:54;;;;;;;;;;;;;;;20.78;31.86;97157.63;1017436;29;1122;-77
2021/12/16 02:40:24;;;;;;;;;;;;;;;20.76;31.67;97160.50;1020795;29;1076;-76
2021/12/16 02:40:54;;;;;;;;;;;;;;;20.76;31.65;97155.22;1020669;29;1327;-77
2021/12/16 02:41:25;;;;;;;;;;;;;;;20.78;31.79;97157.63;1018987;29;1024;-77
2021/12/16 02:41:59;;;;;;;;;;;;;;;20.77;31.73;97159.44;1016868;29;1121;-77
2021/12/16 02:42:38;;;;;;;;;;;;;;;20.75;31.93;97155.47;1018631;29;1108;-77
2021/12/16 02:43:28;;;;;;;;;;;;;;;20.76;31.94;97155.22;1016737;29;1546;-77
2021/12/16 02:48:29;;;;;;;;;;;;;;;20.75;31.72;97153.63;1024616;29;1028;-77
2021/12/16 02:48:47;;;;;;;;;;;;;;;20.72;31.89;97148.84;1024183;29;1887;-77
2021/12/16 02:49:17;;;;;;;;;;;;;;;20.74;31.83;97149.41;1016467;29;1985;-77
2021/12/16 02:49:48;;;;;;;;;;;;;;;20.73;31.75;97145.16;1016568;29;1170;-77
2021/12/16 02:50:18;;;;;;;;;;;;;;;20.72;31.81;97148.03;1012849;29;1191;-78
2021/12/16 02:50:48;;;;;;;;;;;;;;;20.72;32.09;97150.66;1008829;29;1451;-76
2021/12/16 02:51:22;;;;;;;;;;;;;;;20.71;31.87;97144.59;1008842;29;1037;-76
2021/12/16 02:51:53;;;;;;;;;;;;;;;20.70;31.95;97145.66;1011872;29;1174;-77
2021/12/16 02:52:24;;;;;;;;;;;;;;;20.71;31.97;97149.88;1015077;29;1108;-77
2021/12/16 02:52:54;;;;;;;;;;;;;;;20.70;31.78;97144.84;1014990;29;1143;-77
2021/12/16 02:53:24;;;;;;;;;;;;;;;20.69;31.96;97135.34;1012840;29;1112;-77
2021/12/16 02:53:58;;;;;;;;;;;;;;;20.70;31.90;97129.84;1012058;29;1139;-76
2021/12/16 02:54:28;;;;;;;;;;;;;;;20.71;32.02;97133.28;1010834;29;2079;-77
2021/12/16 02:54:59;;;;;;;;;;;;;;;20.71;31.94;97141.19;1010439;29;1359;-77
2021/12/16 02:55:29;;;;;;;;;;;;;;;20.69;31.71;97133.50;1012767;29;999;-77
2021/12/16 02:55:59;;;;;;;;;;;;;;;20.69;31.82;97144.03;1008822;29;1170;-77
2021/12/16 02:56:30;;;;;;;;;;;;;;;20.71;31.88;97139.31;1012757;29;1222;-77
2021/12/16 02:57:00;;;;;;;;;;;;;;;20.71;31.97;97134.06;1012718;29;1199;-77
2021/12/16 02:57:35;;;;;;;;;;;;;;;20.69;31.96;97130.88;1015660;29;1103;-77
2021/12/16 02:58:05;;;;;;;;;;;;;;;20.71;31.68;97143.81;1008652;29;1144;-77
2021/12/16 02:58:36;;;;;;;;;;;;;;;20.69;31.97;97145.91;1008117;29;1676;-76
2021/12/16 02:59:06;;;;;;;;;;;;;;;20.68;31.83;97139.81;1008579;29;2131;-75
2021/12/16 02:59:37;;;;;;;;;;;;;;;20.68;31.96;97141.66;1008772;29;1659;-77
2021/12/16 03:00:12;;;;;;;;;;;;;;;20.67;31.86;97143.47;1006153;29;1159;-76
2021/12/16 03:00:43;;;;;;;;;;;;;;;20.68;31.92;97142.47;1009959;29;1290;-75
2021/12/16 03:01:18;;;;;;;;;;;;;;;20.68;31.82;97145.09;1010092;29;1153;-77
2021/12/16 03:01:50;;;;;;;;;;;;;;;20.69;31.71;97144.03;1014690;29;1978;-77
2021/12/16 03:02:21;;;;;;;;;;;;;;;20.68;31.83;97141.66;1016396;29;1048;-77
2021/12/16 03:02:51;;;;;;;;;;;;;;;20.68;31.88;97139.00;1017544;29;1189;-76
2021/12/16 03:03:22;;;;;;;;;;;;;;;20.65;32.00;97147.41;1020483;29;1159;-77
2021/12/16 03:03:52;;;;;;;;;;;;;;;20.64;31.77;97143.97;1020436;29;1173;-76
2021/12/16 03:04:24;;;;;;;;;;;;;;;20.64;31.91;97149.25;1018172;29;1929;-76
2021/12/16 03:04:55;;;;;;;;;;;;;;;20.63;31.85;97147.63;1018342;29;1131;-77
2021/12/16 03:05:25;;;;;;;;;;;;;;;20.65;31.76;97148.19;1013043;29;1077;-77
2021/12/16 03:05:56;;;;;;;;;;;;;;;20.64;32.05;97146.63;1016623;29;1114;-77
2021/12/16 03:06:28;;;;;;;;;;;;;;;20.63;31.99;97145.00;1020174;29;1422;-77
2021/12/16 03:07:00;;;;;;;;;;;;;;;20.64;32.02;97149.25;1019612;29;1135;-76
2021/12/16 03:07:30;;;;;;;;;;;;;;;20.64;31.93;97146.63;1023265;29;1146;-77
2021/12/16 03:08:00;;;;;;;;;;;;;;;20.66;31.79;97155.06;1022914;29;1087;-76
2021/12/16 03:08:32;;;;;;;;;;;;;;;20.66;31.96;97149.81;1019356;29;1899;-77
2021/12/16 03:09:03;;;;;;;;;;;;;;;20.65;31.93;97155.31;1019598;29;1198;-76
2021/12/16 03:10:20;;;;;;;;;;;;;;;20.64;31.85;97151.88;1019535;29;2288;-77
2021/12/16 03:13:23;;;;;;;;;;;;;;;20.63;31.93;97162.66;1021008;29;1099;-77
2021/12/16 03:13:31;;;;;;;;;;;;;;;20.62;31.74;97159.22;1021258;29;1109;-77
2021/12/16 03:14:48;;;;;;;;;;;;;;;20.62;31.90;97164.50;1022985;29;1549;-76
2021/12/16 03:16:38;;;;;;;;;;;;;;;20.63;31.84;97160.03;1024287;29;973;-76
2021/12/16 03:17:52;;;;;;;;;;;;;;;20.64;31.88;97165.06;1021017;29;1732;-77
2021/12/16 03:18:35;;;;;;;;;;;;;;;20.63;31.95;97166.09;1025434;28;1573;-76
2021/12/16 03:19:20;;;;;;;;;;;;;;;20.62;31.91;97166.31;1020031;29;1114;-77
2021/12/16 03:20:41;;;;;;;;;;;;;;;20.62;31.78;97159.22;1012552;29;1025;-77
2021/12/16 03:21:28;;;;;;;;;;;;;;;20.62;31.87;97168.97;1016485;29;1116;-76
2021/12/16 03:22:01;;;;;;;;;;;;;;;20.59;32.02;97159.69;1017520;29;1197;-76
2021/12/16 03:23:28;;;;;;;;;;;;;;;20.58;31.81;97160.75;1020212;29;949;-76
2021/12/16 03:24:25;;;;;;;;;;;;;;;20.58;31.88;97163.38;1019322;29;1126;-76
2021/12/16 03:25:11;;;;;;;;;;;;;;;20.59;31.83;97169.44;1017461;29;1645;-76
2021/12/16 03:27:44;;;;;;;;;;;;;;;20.58;31.73;97168.66;1016131;29;1021;-76
2021/12/16 03:31:05;;;;;;;;;;;;;;;20.56;31.83;97172.56;1023329;29;1114;-76
2021/12/16 03:32:03;;;;;;;;;;;;;;;20.55;31.79;97168.31;1020051;29;1043;-77
2021/12/16 03:33:50;;;;;;;;;;;;;;;20.56;31.89;97175.19;1017959;29;964;-76
2021/12/16 03:35:25;;;;;;;;;;;;;;;20.55;31.69;97171.75;1023197;29;1102;-77
2021/12/16 03:37:14;;;;;;;;;;;;;;;20.56;31.87;97178.63;1005985;29;2088;-76
2021/12/16 03:37:45;;;;;;;;;;;;;;;20.54;31.88;97172.81;1011403;29;989;-76
2021/12/16 03:38:15;;;;;;;;;;;;;;;20.54;31.77;97178.06;1013700;29;1484;-75
2021/12/16 03:38:46;;;;;;;;;;;;;;;20.52;31.84;97171.44;1017184;29;1120;-76
2021/12/16 03:39:16;;;;;;;;;;;;;;;20.53;31.95;97176.47;1015260;29;2218;-76
2021/12/16 03:39:48;;;;;;;;;;;;;;;20.52;31.84;97180.16;1014824;29;1420;-76
2021/12/16 03:40:19;;;;;;;;;;;;;;;20.51;32.04;97177.72;1022612;29;1055;-76
2021/12/16 03:40:49;;;;;;;;;;;;;;;20.53;31.79;97173.81;1017435;29;1467;-77
2021/12/16 03:41:19;;;;;;;;;;;;;;;20.52;31.93;97177.50;1018876;29;1070;-76
2021/12/16 03:41:49;;;;;;;;;;;;;;;20.52;31.91;97182.78;1016396;29;1000;-76
2021/12/16 03:42:23;;;;;;;;;;;;;;;20.51;32.06;97185.63;1016498;29;1135;-77
2021/12/16 03:42:55;;;;;;;;;;;;;;;20.49;31.80;97180.59;1015371;29;1178;-76
2021/12/16 03:43:27;;;;;;;;;;;;;;;20.50;31.89;97184.03;1016706;29;1029;-76
2021/12/16 03:43:59;;;;;;;;;;;;;;;20.48;31.80;97184.28;1012314;29;1212;-76
2021/12/16 03:44:47;;;;;;;;;;;;;;;20.50;31.98;97176.16;1012122;29;2127;-76
2021/12/16 03:46:44;;;;;;;;;;;;;;;20.48;31.81;97183.50;1023865;29;1046;-77
2021/12/16 03:47:16;;;;;;;;;;;;;;;20.48;32.08;97184.28;1024973;28;1134;-76
2021/12/16 03:47:46;;;;;;;;;;;;;;;20.48;31.83;97186.13;1016821;29;1566;-77
2021/12/16 03:48:22;;;;;;;;;;;;;;;20.47;32.08;97182.69;1017793;29;1964;-75
2021/12/16 03:48:58;;;;;;;;;;;;;;;20.48;32.00;97183.50;1012736;29;1454;-76
2021/12/16 03:49:28;;;;;;;;;;;;;;;20.47;32.00;97187.94;1011907;29;1929;-75
2021/12/16 03:49:59;;;;;;;;;;;;;;;20.51;31.82;97183.00;1015974;29;1189;-76
2021/12/16 03:50:29;;;;;;;;;;;;;;;20.49;31.86;97182.44;1017171;29;1068;-76
2021/12/16 03:51:01;;;;;;;;;;;;;;;20.48;31.90;97188.75;1016349;29;1273;-76
2021/12/16 03:51:43;;;;;;;;;;;;;;;20.48;31.96;97181.66;1013727;29;1048;-76
2021/12/16 03:52:13;;;;;;;;;;;;;;;20.51;31.94;97190.91;1018084;29;1341;-76
2021/12/16 03:52:44;;;;;;;;;;;;;;;20.50;31.86;97187.50;1016338;29;1139;-77
2021/12/16 03:53:16;;;;;;;;;;;;;;;20.49;32.07;97182.44;1014134;29;1045;-76
2021/12/16 03:53:48;;;;;;;;;;;;;;;20.49;31.84;97185.88;1012186;29;1159;-76
2021/12/16 03:54:28;;;;;;;;;;;;;;;20.48;32.02;97186.94;1012037;29;1097;-76
2021/12/16 03:54:59;;;;;;;;;;;;;;;20.48;31.95;97183.50;1017122;29;1123;-76
2021/12/16 03:55:30;;;;;;;;;;;;;;;20.48;31.98;97189.56;1018694;29;1037;-77
2021/12/16 03:56:00;;;;;;;;;;;;;;;20.47;32.00;97181.88;1015919;29;1174;-76
2021/12/16 03:56:30;;;;;;;;;;;;;;;20.49;31.84;97183.25;1015288;29;941;-76
2021/12/16 03:57:02;;;;;;;;;;;;;;;20.50;31.96;97181.41;1013070;29;1150;-77
2021/12/16 03:57:32;;;;;;;;;;;;;;;20.47;31.85;97185.31;1019322;29;1088;-76
2021/12/16 03:58:02;;;;;;;;;;;;;;;20.47;32.01;97182.69;1016179;29;1143;-76
2021/12/16 03:58:33;;;;;;;;;;;;;;;20.47;31.84;97195.84;1015628;29;1448;-76
2021/12/16 03:59:03;;;;;;;;;;;;;;;20.45;31.89;97192.66;1016017;29;1161;-76
2021/12/16 03:59:34;;;;;;;;;;;;;;;20.45;32.03;97192.66;1014254;29;1947;-76
2021/12/16 04:00:06;;;;;;;;;;;;;;;20.45;31.81;97187.38;1015733;29;1427;-76
2021/12/16 04:00:40;;;;;;;;;;;;;;;20.46;31.90;97196.91;1009815;29;1034;-76
2021/12/16 04:01:13;;;;;;;;;;;;;;;20.46;32.00;97196.09;1012320;29;1314;-76
2021/12/16 04:01:43;;;;;;;;;;;;;;;20.43;31.90;97193.91;1016307;29;1127;-76
2021/12/16 04:02:15;;;;;;;;;;;;;;;20.45;31.85;97195.28;1012948;29;1032;-76
2021/12/16 04:02:45;;;;;;;;;;;;;;;20.45;31.86;97197.94;1012880;29;1193;-76
2021/12/16 04:03:16;;;;;;;;;;;;;;;20.45;31.99;97199.75;1016228;29;1163;-77
2021/12/16 04:03:46;;;;;;;;;;;;;;;20.43;32.04;97197.38;1011718;29;2263;-76
2021/12/16 04:04:17;;;;;;;;;;;;;;;20.45;31.71;97200.56;1012986;29;1138;-77
2021/12/16 04:04:47;;;;;;;;;;;;;;;20.45;31.98;97195.28;1016498;29;2313;-76
2021/12/16 04:05:18;;;;;;;;;;;;;;;20.44;31.92;97200.81;1019129;29;1170;-78
2021/12/16 04:05:48;;;;;;;;;;;;;;;20.43;32.18;97196.56;1016337;29;1181;-76
2021/12/16 04:06:19;;;;;;;;;;;;;;;20.42;32.11;97203.69;1016029;29;1343;-76
2021/12/16 04:06:49;;;;;;;;;;;;;;;20.43;31.93;97200.00;1012397;29;1131;-77
2021/12/16 04:07:20;;;;;;;;;;;;;;;20.43;31.85;97196.56;1012486;29;980;-77
2021/12/16 04:07:50;;;;;;;;;;;;;;;20.45;31.80;97200.56;1016129;29;1181;-76
2021/12/16 04:08:21;;;;;;;;;;;;;;;20.45;31.80;97203.19;1014628;29;1395;-75
2021/12/16 04:08:53;;;;;;;;;;;;;;;20.42;31.88;97208.16;1019987;29;1899;-76
2021/12/16 04:09:24;;;;;;;;;;;;;;;20.41;31.94;97207.34;1015962;29;1901;-77
2021/12/16 04:09:54;;;;;;;;;;;;;;;20.42;31.94;97206.31;1018504;29;2228;-76
2021/12/16 04:10:34;;;;;;;;;;;;;;;20.41;31.95;97209.16;1016072;29;1056;-76
2021/12/16 04:11:16;;;;;;;;;;;;;;;20.41;32.10;97209.16;1012349;29;1384;-76
2021/12/16 04:11:51;;;;;;;;;;;;;;;20.41;31.79;97204.72;1009676;29;1116;-76
2021/12/16 04:12:24;;;;;;;;;;;;;;;20.42;31.87;97211.59;1015726;29;1056;-76
2021/12/16 04:12:54;;;;;;;;;;;;;;;20.41;31.73;97209.97;1019232;29;1138;-76
2021/12/16 04:13:24;;;;;;;;;;;;;;;20.43;31.78;97212.34;1017909;29;1098;-77
2021/12/16 04:13:59;;;;;;;;;;;;;;;20.42;31.90;97210.78;1020097;29;1090;-76
2021/12/16 04:14:30;;;;;;;;;;;;;;;20.41;31.83;97212.59;1019248;29;2051;-76
2021/12/16 04:15:01;;;;;;;;;;;;;;;20.42;31.85;97214.22;1015278;29;2166;-76
2021/12/16 04:15:31;;;;;;;;;;;;;;;20.41;31.86;97209.97;1017096;29;1104;-75
2021/12/16 04:16:01;;;;;;;;;;;;;;;20.43;31.82;97213.16;1019002;29;1354;-76
2021/12/16 04:16:33;;;;;;;;;;;;;;;20.41;31.90;97209.97;1019081;29;1151;-77
2021/12/16 04:17:04;;;;;;;;;;;;;;;20.42;31.75;97216.84;1019335;29;2402;-76
2021/12/16 04:17:34;;;;;;;;;;;;;;;20.41;31.80;97217.06;1019974;29;1096;-76
2021/12/16 04:18:05;;;;;;;;;;;;;;;20.39;31.91;97211.25;1016000;29;1106;-76
2021/12/16 04:18:35;;;;;;;;;;;;;;;20.38;31.89;97215.69;1012191;29;1206;-76
2021/12/16 04:19:09;;;;;;;;;;;;;;;20.40;31.97;97213.66;1012025;29;1150;-77
2021/12/16 04:19:39;;;;;;;;;;;;;;;20.41;31.80;97209.16;1012263;29;2055;-76
2021/12/16 04:20:10;;;;;;;;;;;;;;;20.40;32.04;97213.66;1011392;29;1417;-75
2021/12/16 04:20:41;;;;;;;;;;;;;;;20.39;31.95;97212.03;1017095;29;1137;-77
2021/12/16 04:21:11;;;;;;;;;;;;;;;20.39;31.77;97219.13;1023829;28;1285;-77
2021/12/16 04:21:43;;;;;;;;;;;;;;;20.38;31.96;97217.56;1024451;28;1149;-77
2021/12/16 04:22:17;;;;;;;;;;;;;;;20.41;31.86;97224.97;1024081;29;1051;-77
2021/12/16 04:22:48;;;;;;;;;;;;;;;20.39;31.98;97219.13;1013366;29;1142;-76
2021/12/16 04:23:19;;;;;;;;;;;;;;;20.40;32.03;97223.38;1016227;29;1056;-77
2021/12/16 04:23:49;;;;;;;;;;;;;;;20.40;31.87;97223.38;1016263;29;1122;-76
2021/12/16 04:24:19;;;;;;;;;;;;;;;20.38;31.84;97223.59;1015501;29;1087;-76
2021/12/16 04:24:49;;;;;;;;;;;;;;;20.37;31.89;97214.13;1011680;29;2068;-77
2021/12/16 04:25:21;;;;;;;;;;;;;;;20.36;31.85;97225.66;1012160;29;1100;-76
2021/12/16 04:25:52;;;;;;;;;;;;;;;20.37;31.99;97219.38;1012259;29;1178;-76
2021/12/16 04:26:22;;;;;;;;;;;;;;;20.36;31.89;97220.41;1016147;29;1184;-77
2021/12/16 04:26:53;;;;;;;;;;;;;;;20.36;31.89;97225.66;1020019;29;1125;-76
2021/12/16 04:27:23;;;;;;;;;;;;;;;20.38;31.85;97220.97;1012218;29;1068;-76
2021/12/16 04:27:55;;;;;;;;;;;;;;;20.37;31.89;97224.66;1012975;29;1429;-76
2021/12/16 04:28:25;;;;;;;;;;;;;;;20.37;31.81;97216.75;1012276;29;1919;-76
2021/12/16 04:28:56;;;;;;;;;;;;;;;20.37;31.88;97213.31;1009853;29;1589;-77
2021/12/16 04:29:26;;;;;;;;;;;;;;;20.36;31.78;97222.25;1009616;29;1152;-76
2021/12/16 04:29:57;;;;;;;;;;;;;;;20.36;31.82;97217.78;1010797;29;2343;-76
2021/12/16 04:30:28;;;;;;;;;;;;;;;20.36;31.98;97217.00;1015691;29;2305;-77
2021/12/16 04:30:58;;;;;;;;;;;;;;;20.34;31.96;97219.84;1020068;29;1718;-77
2021/12/16 04:31:29;;;;;;;;;;;;;;;20.35;31.97;97220.66;1017056;29;1994;-77
2021/12/16 04:31:59;;;;;;;;;;;;;;;20.37;31.88;97221.22;1011995;29;2344;-76
2021/12/16 04:32:29;;;;;;;;;;;;;;;20.35;31.99;97215.38;1016244;29;1109;-76
2021/12/16 04:32:59;;;;;;;;;;;;;;;20.36;32.00;97219.63;1016328;29;1167;-77
2021/12/16 04:33:30;;;;;;;;;;;;;;;20.38;31.69;97215.69;1016122;29;1047;-77
2021/12/16 04:34:01;;;;;;;;;;;;;;;20.35;32.04;97218.81;1016056;29;1198;-77
2021/12/16 04:34:31;;;;;;;;;;;;;;;20.35;32.05;97224.09;1019922;29;2131;-77
2021/12/16 04:35:02;;;;;;;;;;;;;;;20.35;32.05;97215.38;1016354;29;1616;-77
2021/12/16 04:35:32;;;;;;;;;;;;;;;20.34;31.85;97219.84;1018923;29;1131;-77
2021/12/16 04:36:03;;;;;;;;;;;;;;;20.36;31.90;97222.25;1016203;29;1158;-77
2021/12/16 04:36:33;;;;;;;;;;;;;;;20.35;32.12;97221.44;1015212;29;1144;-76
2021/12/16 04:37:04;;;;;;;;;;;;;;;20.35;32.04;97220.66;1016349;29;1125;-77
2021/12/16 04:37:34;;;;;;;;;;;;;;;20.34;31.98;97225.13;1019645;29;1386;-76
2021/12/16 04:38:05;;;;;;;;;;;;;;;20.32;32.14;97221.91;1019987;29;1047;-77
2021/12/16 04:38:35;;;;;;;;;;;;;;;20.31;32.02;97217.69;1016088;29;1039;-77
2021/12/16 04:39:08;;;;;;;;;;;;;;;20.32;32.06;97218.50;1015452;29;1126;-77
2021/12/16 04:39:39;;;;;;;;;;;;;;;20.32;32.04;97221.13;1016243;29;1052;-77
2021/12/16 04:40:10;;;;;;;;;;;;;;;20.33;31.99;97218.25;1020173;29;2461;-77
2021/12/16 04:40:43;;;;;;;;;;;;;;;20.35;31.94;97223.28;1021952;29;1131;-77
2021/12/16 04:41:14;;;;;;;;;;;;;;;20.36;31.95;97228.31;1019588;29;1140;-77
2021/12/16 04:41:44;;;;;;;;;;;;;;;20.36;31.99;97227.53;1019859;29;1111;-76
2021/12/16 04:42:15;;;;;;;;;;;;;;;20.38;31.95;97228.88;1020281;29;1147;-77
2021/12/16 04:42:46;;;;;;;;;;;;;;;20.36;31.80;97228.31;1012650;29;1182;-76
2021/12/16 04:43:20;;;;;;;;;;;;;;;20.39;32.01;97227.03;1016211;29;1080;-76
2021/12/16 04:43:51;;;;;;;;;;;;;;;20.37;32.04;97227.28;1015172;29;1142;-76
2021/12/16 04:44:22;;;;;;;;;;;;;;;20.39;32.02;97227.84;1013745;29;1045;-76
2021/12/16 04:44:52;;;;;;;;;;;;;;;20.41;31.94;97231.03;1018019;29;1142;-77
2021/12/16 04:45:22;;;;;;;;;;;;;;;20.40;32.00;97223.38;1019066;29;2021;-77
2021/12/16 04:45:53;;;;;;;;;;;;;;;20.41;32.02;97227.59;1016269;29;1181;-76
2021/12/16 04:46:24;;;;;;;;;;;;;;;20.40;32.05;97226.81;1012624;29;1090;-77
2021/12/16 04:46:55;;;;;;;;;;;;;;;20.44;31.89;97221.88;1008905;29;1150;-77
2021/12/16 04:47:25;;;;;;;;;;;;;;;20.44;32.27;97230.59;1012721;29;1120;-76
2021/12/16 04:47:56;;;;;;;;;;;;;;;20.45;31.94;97232.16;1016301;29;1217;-77
2021/12/16 04:48:26;;;;;;;;;;;;;;;20.47;32.12;97229.28;1020050;29;1918;-76
2021/12/16 04:48:57;;;;;;;;;;;;;;;20.46;32.13;97228.50;1016140;29;1075;-76
2021/12/16 04:49:29;;;;;;;;;;;;;;;20.45;31.96;97232.16;1012452;29;1048;-77
2021/12/16 04:49:59;;;;;;;;;;;;;;;20.47;31.88;97237.19;1012657;29;1039;-76
2021/12/16 04:50:30;;;;;;;;;;;;;;;20.46;32.00;97231.16;1015316;29;2016;-77
2021/12/16 04:51:00;;;;;;;;;;;;;;;20.46;32.15;97230.34;1016538;29;1373;-76
2021/12/16 04:51:32;;;;;;;;;;;;;;;20.46;32.12;97233.78;1016117;29;1122;-77
2021/12/16 04:52:08;;;;;;;;;;;;;;;20.47;31.98;97230.09;1016030;29;1127;-76
2021/12/16 04:52:38;;;;;;;;;;;;;;;20.48;31.99;97242.25;1015125;29;1049;-76
2021/12/16 04:53:09;;;;;;;;;;;;;;;20.49;31.88;97235.13;1015434;29;1632;-76
2021/12/16 04:53:39;;;;;;;;;;;;;;;20.49;31.99;97241.19;1012192;29;1160;-76
2021/12/16 04:54:10;;;;;;;;;;;;;;;20.50;31.91;97245.44;1011188;29;1099;-76
2021/12/16 04:54:40;;;;;;;;;;;;;;;20.51;31.96;97236.47;1012476;29;1135;-76
2021/12/16 04:55:10;;;;;;;;;;;;;;;20.52;31.76;97235.47;1016146;29;1246;-76
2021/12/16 04:55:40;;;;;;;;;;;;;;;20.52;32.06;97237.28;1019183;29;2359;-75
2021/12/16 04:56:11;;;;;;;;;;;;;;;20.52;31.83;97238.09;1019890;29;1051;-76
2021/12/16 04:56:42;;;;;;;;;;;;;;;20.52;31.89;97240.72;1015857;29;1225;-76
2021/12/16 04:57:12;;;;;;;;;;;;;;;20.53;31.91;97238.88;1008957;29;1114;-76
2021/12/16 04:57:42;;;;;;;;;;;;;;;20.51;31.79;97241.75;1008454;29;1139;-76
2021/12/16 04:58:14;;;;;;;;;;;;;;;20.53;31.92;97241.50;1012354;29;1044;-76
2021/12/16 04:58:45;;;;;;;;;;;;;;;20.54;31.95;97245.75;1007730;29;1463;-75
2021/12/16 04:59:16;;;;;;;;;;;;;;;20.55;31.80;97242.88;1015899;29;953;-76
2021/12/16 04:59:46;;;;;;;;;;;;;;;20.58;31.72;97241.59;1012641;29;1213;-76
2021/12/16 05:00:21;;;;;;;;;;;;;;;20.58;31.53;97247.69;1012395;29;1995;-76
2021/12/16 05:00:51;;;;;;;;;;;;;;;20.59;31.82;97243.19;1016208;29;1482;-76
2021/12/16 05:01:22;;;;;;;;;;;;;;;20.62;31.67;97243.53;1020536;29;1758;-77
2021/12/16 05:01:56;;;;;;;;;;;;;;;20.62;31.79;97248.81;1016466;29;1179;-75
2021/12/16 05:02:26;;;;;;;;;;;;;;;20.61;31.78;97249.81;1018272;29;1092;-76
2021/12/16 05:02:56;;;;;;;;;;;;;;;20.62;31.79;97248.00;1016266;29;1130;-76
2021/12/16 05:03:27;;;;;;;;;;;;;;;20.62;31.79;97248.00;1016369;29;1206;-77
2021/12/16 05:03:57;;;;;;;;;;;;;;;20.61;31.81;97252.47;1011290;29;2067;-77
2021/12/16 05:04:27;;;;;;;;;;;;;;;20.61;31.71;97251.69;1008287;29;1037;-77
2021/12/16 05:04:57;;;;;;;;;;;;;;;20.63;31.80;97246.97;1012168;29;1143;-77
2021/12/16 05:05:28;;;;;;;;;;;;;;;20.63;31.60;97244.34;1015556;29;2134;-77
2021/12/16 05:05:58;;;;;;;;;;;;;;;20.65;31.56;97247.53;1020260;29;1178;-77